createdAt,value
2023-04-26T00:01:35.452Z,97.20
2023-04-26T00:04:03.100Z,97.00
2023-04-26T00:06:30.194Z,96.90
2023-04-26T00:08:56.896Z,97.20
2023-04-26T00:11:23.668Z,97.20
2023-04-26T00:13:50.383Z,97.00
2023-04-26T00:16:18.515Z,97.00
2023-04-26T00:18:46.266Z,97.00
2023-04-26T00:21:13.068Z,97.50
2023-04-26T00:23:39.851Z,97.80
2023-04-26T00:26:06.597Z,97.90
2023-04-26T00:28:33.563Z,97.90
2023-04-26T00:31:00.420Z,97.60
2023-04-26T00:33:27.131Z,97.50
2023-04-26T00:35:53.797Z,97.50
2023-04-26T00:38:20.635Z,97.60
2023-04-26T00:40:47.569Z,97.60
2023-04-26T00:43:14.398Z,97.80
2023-04-26T00:45:42.411Z,97.80
2023-04-26T00:48:09.816Z,98.00
2023-04-26T00:50:37.389Z,98.20
2023-04-26T00:53:04.749Z,98.20
2023-04-26T00:55:32.938Z,98.20
2023-04-26T00:58:02.069Z,98.20
2023-04-26T01:03:24.331Z,98.50
2023-04-26T01:05:54.229Z,98.80
2023-04-26T01:08:22.400Z,99.30
2023-04-26T01:10:49.867Z,99.10
2023-04-26T01:13:20.389Z,98.90
2023-04-26T01:15:55.374Z,99.00
2023-04-26T01:18:22.939Z,99.00
2023-04-26T01:20:50.050Z,99.30
2023-04-26T01:23:17.383Z,99.30
2023-04-26T01:25:44.345Z,99.30
2023-04-26T01:28:11.543Z,99.50
2023-04-26T01:30:38.222Z,99.70
2023-04-26T01:33:05.170Z,99.90
2023-04-26T01:35:31.867Z,99.90
2023-04-26T01:37:58.586Z,99.90
2023-04-26T01:40:25.374Z,99.90
2023-04-26T01:42:52.385Z,99.90
2023-04-26T01:45:19.144Z,99.90
2023-04-26T01:47:46.212Z,99.90
2023-04-26T01:50:12.970Z,99.90
2023-04-26T01:52:39.655Z,99.90
2023-04-26T01:55:07.432Z,99.90
2023-04-26T01:57:34.155Z,99.90
2023-04-26T02:00:02.455Z,99.90
2023-04-26T02:02:29.436Z,99.90
2023-04-26T02:04:56.227Z,99.90
2023-04-26T02:07:23.074Z,99.90
2023-04-26T02:09:49.990Z,99.90
2023-04-26T02:12:17.045Z,99.90
2023-04-26T02:14:43.830Z,99.90
2023-04-26T02:17:11.193Z,99.90
2023-04-26T02:19:37.945Z,99.90
2023-04-26T02:22:06.321Z,99.90
2023-04-26T02:24:33.532Z,99.90
2023-04-26T02:27:03.746Z,99.90
2023-04-26T02:29:43.673Z,99.90
2023-04-26T02:32:11.636Z,99.90
2023-04-26T02:34:38.350Z,99.90
2023-04-26T02:37:05.094Z,99.90
2023-04-26T02:39:32.286Z,99.90
2023-04-26T02:41:59.532Z,99.90
2023-04-26T02:44:29.821Z,99.90
2023-04-26T02:46:56.706Z,99.90
2023-04-26T02:49:24.003Z,99.90
2023-04-26T02:51:50.930Z,99.90
2023-04-26T02:54:17.938Z,99.90
2023-04-26T02:56:44.630Z,99.90
2023-04-26T02:59:11.325Z,99.90
2023-04-26T03:01:38.096Z,99.90
2023-04-26T03:04:05.261Z,99.90
2023-04-26T03:06:33.435Z,99.90
2023-04-26T03:09:00.270Z,99.90
2023-04-26T03:11:27.198Z,99.90
2023-04-26T03:13:53.950Z,99.90
2023-04-26T03:16:24.146Z,99.90
2023-04-26T03:18:51.114Z,99.90
2023-04-26T03:21:18.352Z,99.90
2023-04-26T03:23:45.092Z,99.90
2023-04-26T03:26:11.983Z,99.90
2023-04-26T03:28:38.937Z,99.90
2023-04-26T03:31:05.737Z,99.90
2023-04-26T03:33:32.453Z,99.90
2023-04-26T03:35:59.168Z,99.90
2023-04-26T03:38:26.212Z,99.90
2023-04-26T03:40:52.928Z,99.90
2023-04-26T03:43:19.877Z,99.90
2023-04-26T03:45:50.467Z,99.90
2023-04-26T03:48:17.406Z,99.90
2023-04-26T03:50:45.443Z,99.90
2023-04-26T03:53:12.574Z,99.90
2023-04-26T03:55:39.320Z,99.90
2023-04-26T03:58:08.088Z,99.90
2023-04-26T04:00:38.427Z,99.90
2023-04-26T04:03:06.977Z,99.90
2023-04-26T04:05:34.330Z,99.90
2023-04-26T04:08:01.828Z,99.90
2023-04-26T04:10:29.193Z,99.90
2023-04-26T04:12:55.888Z,99.90
2023-04-26T04:15:23.001Z,99.90
2023-04-26T04:17:49.740Z,99.90
2023-04-26T04:20:16.651Z,99.90
2023-04-26T04:22:43.426Z,99.90
2023-04-26T04:25:10.581Z,99.90
2023-04-26T04:27:38.059Z,99.90
2023-04-26T04:30:07.364Z,99.90
2023-04-26T04:32:34.183Z,99.90
2023-04-26T04:35:01.570Z,99.90
2023-04-26T04:37:28.889Z,99.90
2023-04-26T04:39:55.964Z,99.90
2023-04-26T04:42:23.467Z,99.90
2023-04-26T04:44:50.579Z,99.90
2023-04-26T04:47:17.812Z,99.90
2023-04-26T04:49:44.818Z,99.90
2023-04-26T04:52:11.564Z,99.90
2023-04-26T04:54:38.438Z,99.90
2023-04-26T04:57:06.758Z,99.90
2023-04-26T04:59:33.549Z,99.90
2023-04-26T05:02:00.357Z,99.90
2023-04-26T05:04:27.536Z,99.90
2023-04-26T05:06:54.401Z,99.90
2023-04-26T05:09:21.611Z,99.90
2023-04-26T05:11:48.377Z,99.90
2023-04-26T05:14:15.131Z,99.90
2023-04-26T05:16:42.076Z,99.90
2023-04-26T05:19:09.673Z,99.90
2023-04-26T05:21:36.665Z,99.90
2023-04-26T05:24:04.227Z,99.90
2023-04-26T05:26:31.066Z,99.90
2023-04-26T05:28:58.069Z,99.90
2023-04-26T05:31:24.832Z,99.90
2023-04-26T05:33:51.843Z,99.90
2023-04-26T05:36:19.465Z,99.90
2023-04-26T05:38:48.773Z,99.90
2023-04-26T05:41:15.541Z,99.90
2023-04-26T05:43:42.248Z,99.90
2023-04-26T05:46:09.075Z,99.90
2023-04-26T05:48:36.038Z,99.90
2023-04-26T05:51:04.088Z,99.90
2023-04-26T05:53:31.142Z,99.90
2023-04-26T05:56:19.262Z,99.90
2023-04-26T06:01:27.899Z,99.90
2023-04-26T06:03:57.997Z,99.90
2023-04-26T06:06:28.474Z,99.90
2023-04-26T06:08:55.609Z,99.90
2023-04-26T06:11:44.107Z,99.90
2023-04-26T06:14:28.905Z,99.10
2023-04-26T06:28:24.837Z,96.60
2023-04-26T06:30:51.837Z,96.50
2023-04-26T06:33:18.608Z,96.20
2023-04-26T06:35:46.498Z,95.90
2023-04-26T06:38:13.238Z,95.60
2023-04-26T06:40:40.284Z,95.50
2023-04-26T06:43:07.070Z,95.00
2023-04-26T06:45:41.638Z,94.40
2023-04-26T06:48:15.903Z,93.60
2023-04-26T06:50:42.741Z,93.30
2023-04-26T06:53:09.530Z,93.00
2023-04-26T06:55:36.606Z,93.30
2023-04-26T06:58:03.409Z,93.20
2023-04-26T07:00:30.603Z,93.00
2023-04-26T07:02:57.829Z,92.60
2023-04-26T07:05:24.861Z,92.00
2023-04-26T07:07:51.578Z,91.40
2023-04-26T07:10:18.301Z,90.10
2023-04-26T07:12:45.265Z,87.70
2023-04-26T07:15:12.306Z,83.20
2023-04-26T07:17:39.069Z,82.10
2023-04-26T07:20:07.718Z,80.60
2023-04-26T07:26:42.036Z,78.80
2023-04-26T07:33:19.825Z,73.30
2023-04-26T07:36:40.282Z,73.30
2023-04-26T07:42:55.108Z,67.50
2023-04-26T07:45:54.275Z,65.70
2023-04-26T07:48:43.673Z,62.60
2023-04-26T07:51:28.433Z,61.20
2023-04-26T07:54:09.713Z,58.40
2023-04-26T07:56:50.089Z,58.30
2023-04-26T07:59:31.110Z,58.30
2023-04-26T08:02:07.936Z,58.30
2023-04-26T08:11:22.967Z,53.80
2023-04-26T08:13:52.837Z,52.10
2023-04-26T08:16:19.957Z,48.90
2023-04-26T08:18:48.694Z,49.20
2023-04-26T08:21:15.751Z,49.60
2023-04-26T08:23:57.011Z,48.00
2023-04-26T08:26:27.152Z,47.30
2023-04-26T08:28:54.090Z,47.80
2023-04-26T08:31:23.109Z,48.90
2023-04-26T08:33:50.301Z,50.30
2023-04-26T08:36:17.219Z,51.00
2023-04-26T08:38:47.913Z,51.30
2023-04-26T08:41:15.375Z,50.20
2023-04-26T08:43:49.285Z,50.60
2023-04-26T08:46:21.186Z,49.90
2023-04-26T08:49:01.341Z,48.30
2023-04-26T08:51:31.974Z,48.10
2023-04-26T08:54:00.042Z,48.50
2023-04-26T08:56:30.731Z,48.50
2023-04-26T08:58:59.631Z,48.90
2023-04-26T09:01:28.998Z,48.90
2023-04-26T09:04:00.095Z,48.60
2023-04-26T09:06:38.913Z,47.90
2023-04-26T09:09:12.859Z,47.20
2023-04-26T09:11:59.988Z,47.60
2023-04-26T09:14:27.655Z,47.90
2023-04-26T09:17:06.247Z,47.00
2023-04-26T09:19:40.430Z,47.00
2023-04-26T09:22:07.547Z,46.80
2023-04-26T09:24:52.596Z,45.90
2023-04-26T09:27:20.210Z,45.90
2023-04-26T09:30:02.256Z,45.40
2023-04-26T09:32:43.444Z,45.00
2023-04-26T09:35:25.992Z,44.80
2023-04-26T09:38:13.076Z,44.70
2023-04-26T09:40:41.840Z,44.90
2023-04-26T09:43:14.581Z,43.50
2023-04-26T09:45:52.989Z,42.70
2023-04-26T09:48:28.885Z,42.60
2023-04-26T09:51:11.371Z,42.40
2023-04-26T09:53:51.034Z,42.50
2023-04-26T09:56:21.265Z,39.40
2023-04-26T09:58:48.721Z,39.20
2023-04-26T10:01:28.146Z,39.60
2023-04-26T10:03:57.705Z,39.20
2023-04-26T10:06:25.271Z,38.90
2023-04-26T10:08:53.921Z,37.90
2023-04-26T10:11:22.459Z,36.70
2023-04-26T10:13:51.721Z,37.20
2023-04-26T10:16:24.807Z,37.60
2023-04-26T10:18:55.788Z,38.60
2023-04-26T10:21:33.239Z,38.80
2023-04-26T10:24:00.848Z,37.80
2023-04-26T10:26:53.132Z,37.90
2023-04-26T10:29:24.061Z,37.70
2023-04-26T10:32:12.815Z,36.30
2023-04-26T10:34:48.465Z,35.00
2023-04-26T10:37:19.602Z,35.80
2023-04-26T10:39:53.090Z,34.20
2023-04-26T10:43:01.161Z,34.20
2023-04-26T10:45:30.089Z,34.10
2023-04-26T10:48:30.644Z,35.20
2023-04-26T10:51:08.647Z,34.50
2023-04-26T10:53:51.573Z,35.20
2023-04-26T10:56:30.642Z,35.60
2023-04-26T10:59:33.473Z,35.90
2023-04-26T11:02:04.357Z,35.10
2023-04-26T11:04:53.780Z,35.40
2023-04-26T11:11:10.191Z,36.70
2023-04-26T11:13:42.122Z,36.10
2023-04-26T11:16:11.097Z,36.40
2023-04-26T11:18:45.239Z,37.70
2023-04-26T11:21:19.380Z,37.60
2023-04-26T11:24:00.534Z,35.10
2023-04-26T11:26:33.458Z,35.70
2023-04-26T11:29:01.585Z,33.30
2023-04-26T11:31:31.075Z,33.50
2023-04-26T11:34:50.852Z,33.50
2023-04-26T11:37:19.150Z,34.10
2023-04-26T11:39:51.362Z,34.80
2023-04-26T11:42:24.876Z,35.70
2023-04-26T11:45:14.796Z,36.60
2023-04-26T11:47:44.492Z,36.80
2023-04-26T11:50:12.166Z,36.40
2023-04-26T11:52:41.798Z,36.90
2023-04-26T11:55:12.707Z,37.50
2023-04-26T11:57:41.092Z,38.10
2023-04-26T12:00:16.809Z,38.30
2023-04-26T12:02:52.354Z,38.80
2023-04-26T12:05:28.135Z,39.60
2023-04-26T12:07:57.182Z,39.50
2023-04-26T12:10:29.510Z,40.70
2023-04-26T12:12:58.803Z,39.40
2023-04-26T12:15:35.068Z,39.00
2023-04-26T12:18:11.049Z,38.00
2023-04-26T12:20:42.986Z,37.70
2023-04-26T12:23:12.128Z,37.40
2023-04-26T12:25:41.516Z,37.40
2023-04-26T12:28:13.920Z,36.50
2023-04-26T12:30:41.192Z,36.40
2023-04-26T12:33:16.201Z,36.40
2023-04-26T12:35:43.729Z,36.00
2023-04-26T12:38:11.601Z,35.70
2023-04-26T12:40:38.915Z,35.90
2023-04-26T12:43:05.847Z,35.90
2023-04-26T12:45:32.766Z,36.00
2023-04-26T12:48:31.867Z,36.10
2023-04-26T12:50:58.763Z,35.20
2023-04-26T12:53:25.734Z,33.90
2023-04-26T12:55:52.691Z,33.40
2023-04-26T12:58:19.613Z,32.40
2023-04-26T13:00:46.425Z,32.80
2023-04-26T13:03:16.365Z,33.10
2023-04-26T13:05:43.428Z,33.20
2023-04-26T13:08:12.438Z,31.20
2023-04-26T13:10:39.717Z,30.70
2023-04-26T13:13:07.168Z,32.30
2023-04-26T13:15:34.147Z,32.90
2023-04-26T13:18:01.400Z,32.50
2023-04-26T13:20:31.090Z,32.70
2023-04-26T13:22:57.990Z,32.80
2023-04-26T13:25:27.832Z,32.50
2023-04-26T13:27:55.553Z,32.40
2023-04-26T13:30:22.457Z,33.10
2023-04-26T13:32:57.505Z,32.80
2023-04-26T13:35:32.407Z,32.70
2023-04-26T13:37:59.253Z,33.30
2023-04-26T13:40:26.332Z,33.50
2023-04-26T13:42:54.600Z,32.90
2023-04-26T13:45:24.737Z,32.40
2023-04-26T13:47:51.588Z,32.40
2023-04-26T13:50:18.787Z,31.10
2023-04-26T13:52:46.098Z,30.70
2023-04-26T13:55:13.012Z,29.60
2023-04-26T13:57:39.907Z,29.50
2023-04-26T14:00:10.973Z,29.40
2023-04-26T14:02:39.440Z,29.70
2023-04-26T14:05:09.491Z,30.70
2023-04-26T14:07:39.800Z,30.90
2023-04-26T14:10:16.297Z,31.00
2023-04-26T14:13:20.766Z,30.20
2023-04-26T14:15:56.451Z,30.00
2023-04-26T14:18:28.465Z,29.80
2023-04-26T14:20:58.298Z,29.90
2023-04-26T14:34:06.447Z,28.40
2023-04-26T14:36:33.378Z,28.70
2023-04-26T14:39:44.178Z,28.80
2023-04-26T14:42:16.751Z,28.90
2023-04-26T14:45:43.883Z,28.90
2023-04-26T14:48:12.519Z,28.60
2023-04-26T14:50:39.451Z,28.90
2023-04-26T14:53:06.787Z,29.00
2023-04-26T14:55:33.670Z,28.90
2023-04-26T14:58:00.688Z,29.00
2023-04-26T15:00:30.377Z,28.90
2023-04-26T15:03:01.899Z,28.80
2023-04-26T15:05:28.995Z,28.70
2023-04-26T15:07:56.980Z,28.70
2023-04-26T15:10:23.858Z,28.50
2023-04-26T15:12:51.241Z,27.90
2023-04-26T15:15:18.206Z,27.80
2023-04-26T15:17:48.225Z,28.30
2023-04-26T15:20:15.926Z,28.60
2023-04-26T15:22:43.298Z,28.60
2023-04-26T15:25:43.145Z,29.10
2023-04-26T15:28:17.875Z,30.00
2023-04-26T15:30:50.573Z,30.70
2023-04-26T15:33:57.945Z,31.30
2023-04-26T15:36:24.913Z,31.40
2023-04-26T15:38:52.018Z,31.30
2023-04-26T15:41:18.976Z,31.20
2023-04-26T15:43:45.945Z,31.10
2023-04-26T15:46:19.174Z,30.80
2023-04-26T15:48:59.070Z,31.10
2023-04-26T15:51:54.579Z,32.20
2023-04-26T15:58:37.125Z,33.40
2023-04-26T19:14:23.584Z,49.10
2023-04-26T19:16:54.361Z,49.10
2023-04-26T19:20:01.613Z,49.50
2023-04-26T19:29:18.132Z,50.90
2023-04-26T19:31:47.842Z,51.40
2023-04-26T19:37:19.537Z,52.00
2023-04-26T19:42:47.388Z,52.80
2023-04-26T19:45:20.644Z,53.20
2023-04-26T19:47:47.751Z,53.50
2023-04-26T19:50:15.107Z,53.90
2023-04-26T19:52:46.627Z,54.40
2023-04-26T19:55:13.656Z,54.80
2023-04-26T19:57:41.115Z,55.30
2023-04-26T20:00:08.651Z,55.90
2023-04-26T20:02:35.659Z,56.30
2023-04-26T20:05:02.928Z,56.70
2023-04-26T20:07:29.928Z,57.40
2023-04-26T20:09:56.724Z,58.00
2023-04-26T20:12:24.157Z,58.50
2023-04-26T20:14:51.207Z,59.20
2023-04-26T20:17:18.245Z,59.70
2023-04-26T20:19:45.110Z,60.00
2023-04-26T20:22:11.821Z,60.40
2023-04-26T20:24:38.580Z,60.90
2023-04-26T20:27:05.556Z,61.30
2023-04-26T20:29:35.853Z,61.70
2023-04-26T20:32:02.718Z,62.30
2023-04-26T20:34:29.543Z,63.00
2023-04-26T20:36:56.289Z,63.70
2023-04-26T20:39:33.800Z,64.10
2023-04-26T20:42:01.537Z,64.70
2023-04-26T20:44:28.247Z,64.80
2023-04-26T20:46:55.046Z,65.40
2023-04-26T20:49:21.733Z,66.00
2023-04-26T20:51:48.459Z,66.20
2023-04-26T20:54:15.635Z,67.00
2023-04-26T20:56:42.334Z,68.20
2023-04-26T20:59:09.424Z,68.70
2023-04-26T21:01:36.347Z,68.40
2023-04-26T21:04:03.336Z,69.00
2023-04-26T21:06:30.190Z,69.50
2023-04-26T21:08:56.923Z,70.00
2023-04-26T21:11:23.694Z,70.30
2023-04-26T21:13:50.611Z,70.70
2023-04-26T21:16:17.413Z,71.50
2023-04-26T21:18:44.202Z,72.70
2023-04-26T21:21:11.109Z,73.20
2023-04-26T21:23:40.666Z,73.90
2023-04-26T21:26:07.419Z,75.10
2023-04-26T21:28:34.089Z,76.10
2023-04-26T21:31:05.982Z,75.80
2023-04-26T21:33:33.956Z,76.70
2023-04-26T21:36:00.892Z,77.60
2023-04-26T21:38:27.752Z,77.70
2023-04-26T21:40:54.416Z,78.30
2023-04-26T21:43:21.802Z,78.70
2023-04-26T21:45:50.297Z,80.20
2023-04-26T21:48:17.090Z,81.00
2023-04-26T21:50:43.857Z,80.90
2023-04-26T21:53:10.647Z,81.70
2023-04-26T21:55:37.577Z,82.50
2023-04-26T21:58:04.286Z,83.00
2023-04-26T22:00:31.862Z,83.00
2023-04-26T22:02:59.504Z,83.80
2023-04-26T22:05:26.879Z,85.20
2023-04-26T22:07:57.308Z,85.90
2023-04-26T22:10:24.080Z,86.30
2023-04-26T22:12:50.784Z,87.30
2023-04-26T22:15:17.546Z,88.30
2023-04-26T22:17:44.359Z,89.20
2023-04-26T22:20:11.751Z,90.00
2023-04-26T22:22:38.798Z,90.30
2023-04-26T22:25:05.974Z,90.60
2023-04-26T22:27:32.739Z,90.90
2023-04-26T22:30:04.236Z,91.20
2023-04-26T22:32:39.415Z,91.30
2023-04-26T22:35:06.590Z,91.80
2023-04-26T22:37:33.282Z,91.80
2023-04-26T22:39:59.949Z,92.00
2023-04-26T22:42:26.625Z,92.30
2023-04-26T22:44:53.450Z,92.50
2023-04-26T22:47:22.764Z,92.80
2023-04-26T22:49:49.713Z,93.00
2023-04-26T22:52:28.273Z,93.20
2023-04-26T22:54:58.034Z,93.40
2023-04-26T22:57:24.752Z,93.70
2023-04-26T22:59:51.454Z,93.80
2023-04-26T23:02:18.449Z,93.90
2023-04-26T23:04:45.975Z,94.20
2023-04-26T23:07:12.707Z,94.40
2023-04-26T23:09:39.493Z,94.50
2023-04-26T23:12:06.274Z,95.20
2023-04-26T23:14:41.226Z,95.10
2023-04-26T23:17:08.023Z,95.30
2023-04-26T23:19:35.047Z,95.50
2023-04-26T23:22:01.712Z,95.60
2023-04-26T23:24:28.411Z,95.80
2023-04-26T23:26:55.162Z,96.00
2023-04-26T23:29:21.983Z,96.10
2023-04-26T23:31:48.767Z,96.20
2023-04-26T23:34:15.527Z,96.30
2023-04-26T23:36:42.385Z,96.40
2023-04-26T23:39:09.260Z,96.60
2023-04-26T23:41:36.083Z,96.90
2023-04-26T23:44:02.752Z,97.10
2023-04-26T23:46:29.687Z,97.30
2023-04-26T23:48:56.409Z,97.40
2023-04-26T23:51:23.138Z,97.50
2023-04-26T23:53:49.909Z,97.60
2023-04-26T23:56:16.677Z,97.90
2023-04-26T23:58:43.418Z,97.80
